sensor_id;sensor_type;location;lat;lon;timestamp;temperature;humidity
13433;DHT22;6789;47.678;9.158;2023-08-17T00:03:09;21.70;99.90
13433;DHT22;6789;47.678;9.158;2023-08-17T00:08:01;21.60;99.90
13433;DHT22;6789;47.678;9.158;2023-08-17T00:12:53;21.50;99.90
13433;DHT22;6789;47.678;9.158;2023-08-17T00:17:45;21.40;99.90
13433;DHT22;6789;47.678;9.158;2023-08-17T00:22:37;21.40;99.90
13433;DHT22;6789;47.678;9.158;2023-08-17T00:27:29;21.30;99.90
13433;DHT22;6789;47.678;9.158;2023-08-17T00:32:20;21.30;99.90
13433;DHT22;6789;47.678;9.158;2023-08-17T00:37:12;21.30;99.90
13433;DHT22;6789;47.678;9.158;2023-08-17T00:42:04;21.30;99.90
13433;DHT22;6789;47.678;9.158;2023-08-17T00:46:56;21.30;99.90
13433;DHT22;6789;47.678;9.158;2023-08-17T00:51:48;21.30;99.90
13433;DHT22;6789;47.678;9.158;2023-08-17T00:56:40;21.20;99.90
13433;DHT22;6789;47.678;9.158;2023-08-17T01:01:32;21.10;99.90
13433;DHT22;6789;47.678;9.158;2023-08-17T01:06:24;21.10;99.90
13433;DHT22;6789;47.678;9.158;2023-08-17T01:11:29;21.00;99.90
13433;DHT22;6789;47.678;9.158;2023-08-17T01:16:42;20.90;99.90
13433;DHT22;6789;47.678;9.158;2023-08-17T01:21:46;20.90;99.90
13433;DHT22;6789;47.678;9.158;2023-08-17T01:26:41;20.90;99.90
13433;DHT22;6789;47.678;9.158;2023-08-17T01:32:12;20.90;99.90
13433;DHT22;6789;47.678;9.158;2023-08-17T01:37:10;20.80;99.90
13433;DHT22;6789;47.678;9.158;2023-08-17T01:42:05;20.70;99.90
13433;DHT22;6789;47.678;9.158;2023-08-17T01:46:58;20.60;99.90
13433;DHT22;6789;47.678;9.158;2023-08-17T01:51:54;20.60;99.90
13433;DHT22;6789;47.678;9.158;2023-08-17T01:57:00;20.50;99.90
13433;DHT22;6789;47.678;9.158;2023-08-17T02:01:51;20.50;99.90
13433;DHT22;6789;47.678;9.158;2023-08-17T02:06:43;20.50;99.90
13433;DHT22;6789;47.678;9.158;2023-08-17T02:11:35;20.40;99.90
13433;DHT22;6789;47.678;9.158;2023-08-17T02:16:27;20.30;99.90
13433;DHT22;6789;47.678;9.158;2023-08-17T02:21:18;20.30;99.90
13433;DHT22;6789;47.678;9.158;2023-08-17T02:26:10;20.30;99.90
13433;DHT22;6789;47.678;9.158;2023-08-17T02:31:02;20.20;99.90
13433;DHT22;6789;47.678;9.158;2023-08-17T02:35:54;20.10;99.90
13433;DHT22;6789;47.678;9.158;2023-08-17T02:40:48;20.10;99.90
13433;DHT22;6789;47.678;9.158;2023-08-17T02:45:40;20.10;99.90
13433;DHT22;6789;47.678;9.158;2023-08-17T02:50:32;20.00;99.90
13433;DHT22;6789;47.678;9.158;2023-08-17T02:55:23;20.00;99.90
13433;DHT22;6789;47.678;9.158;2023-08-17T03:00:15;20.00;99.90
13433;DHT22;6789;47.678;9.158;2023-08-17T03:05:07;20.00;99.90
13433;DHT22;6789;47.678;9.158;2023-08-17T03:09:59;20.00;99.90
13433;DHT22;6789;47.678;9.158;2023-08-17T03:14:51;19.90;99.90
13433;DHT22;6789;47.678;9.158;2023-08-17T03:19:43;19.90;99.90
13433;DHT22;6789;47.678;9.158;2023-08-17T03:24:35;19.90;99.90
13433;DHT22;6789;47.678;9.158;2023-08-17T03:29:26;19.80;99.90
13433;DHT22;6789;47.678;9.158;2023-08-17T03:34:18;19.80;99.90
13433;DHT22;6789;47.678;9.158;2023-08-17T03:39:10;19.80;99.90
13433;DHT22;6789;47.678;9.158;2023-08-17T03:44:03;19.80;99.90
13433;DHT22;6789;47.678;9.158;2023-08-17T03:48:57;19.80;99.90
13433;DHT22;6789;47.678;9.158;2023-08-17T03:53:49;19.70;99.90
13433;DHT22;6789;47.678;9.158;2023-08-17T03:58:41;19.60;99.90
13433;DHT22;6789;47.678;9.158;2023-08-17T04:03:47;19.60;99.90
13433;DHT22;6789;47.678;9.158;2023-08-17T04:08:39;19.60;99.90
13433;DHT22;6789;47.678;9.158;2023-08-17T04:13:31;19.50;99.90
13433;DHT22;6789;47.678;9.158;2023-08-17T04:18:23;19.60;99.90
13433;DHT22;6789;47.678;9.158;2023-08-17T04:23:15;19.60;99.90
13433;DHT22;6789;47.678;9.158;2023-08-17T04:28:07;19.70;99.90
13433;DHT22;6789;47.678;9.158;2023-08-17T04:32:59;19.70;99.90
13433;DHT22;6789;47.678;9.158;2023-08-17T04:37:52;19.70;99.90
13433;DHT22;6789;47.678;9.158;2023-08-17T04:42:43;19.90;99.90
13433;DHT22;6789;47.678;9.158;2023-08-17T04:47:35;20.20;99.90
13433;DHT22;6789;47.678;9.158;2023-08-17T04:52:27;20.80;99.90
13433;DHT22;6789;47.678;9.158;2023-08-17T04:57:19;21.60;99.90
13433;DHT22;6789;47.678;9.158;2023-08-17T05:02:11;22.50;99.90
13433;DHT22;6789;47.678;9.158;2023-08-17T05:07:03;23.20;99.90
13433;DHT22;6789;47.678;9.158;2023-08-17T05:11:54;24.20;99.90
13433;DHT22;6789;47.678;9.158;2023-08-17T05:17:01;25.10;99.90
13433;DHT22;6789;47.678;9.158;2023-08-17T05:21:53;25.70;99.90
13433;DHT22;6789;47.678;9.158;2023-08-17T05:26:45;26.80;99.90
13433;DHT22;6789;47.678;9.158;2023-08-17T05:31:37;27.10;99.90
13433;DHT22;6789;47.678;9.158;2023-08-17T05:36:32;27.60;99.90
13433;DHT22;6789;47.678;9.158;2023-08-17T05:41:26;28.10;99.90
13433;DHT22;6789;47.678;9.158;2023-08-17T05:46:32;28.90;99.90
13433;DHT22;6789;47.678;9.158;2023-08-17T05:51:24;29.30;99.90
13433;DHT22;6789;47.678;9.158;2023-08-17T05:56:17;29.60;99.90
13433;DHT22;6789;47.678;9.158;2023-08-17T06:01:10;29.60;99.90
13433;DHT22;6789;47.678;9.158;2023-08-17T06:06:04;28.40;99.90
13433;DHT22;6789;47.678;9.158;2023-08-17T06:10:57;27.40;99.90
13433;DHT22;6789;47.678;9.158;2023-08-17T06:15:49;26.90;99.90
13433;DHT22;6789;47.678;9.158;2023-08-17T06:20:41;26.30;99.90
13433;DHT22;6789;47.678;9.158;2023-08-17T06:25:47;26.00;99.90
13433;DHT22;6789;47.678;9.158;2023-08-17T06:35:59;26.30;99.90
13433;DHT22;6789;47.678;9.158;2023-08-17T06:40:53;26.70;99.90
13433;DHT22;6789;47.678;9.158;2023-08-17T06:52:23;27.90;99.90
13433;DHT22;6789;47.678;9.158;2023-08-17T06:58:05;27.90;99.90
13433;DHT22;6789;47.678;9.158;2023-08-17T07:04:44;27.90;99.90
13433;DHT22;6789;47.678;9.158;2023-08-17T07:09:53;27.90;99.90
13433;DHT22;6789;47.678;9.158;2023-08-17T07:15:40;28.00;99.90
13433;DHT22;6789;47.678;9.158;2023-08-17T07:21:31;28.00;99.90
13433;DHT22;6789;47.678;9.158;2023-08-17T07:26:43;28.00;99.90
13433;DHT22;6789;47.678;9.158;2023-08-17T07:31:49;27.90;99.90
13433;DHT22;6789;47.678;9.158;2023-08-17T07:36:41;27.80;99.90
13433;DHT22;6789;47.678;9.158;2023-08-17T07:41:33;27.80;99.90
13433;DHT22;6789;47.678;9.158;2023-08-17T07:46:52;27.30;99.90
13433;DHT22;6789;47.678;9.158;2023-08-17T07:52:09;27.40;99.90
13433;DHT22;6789;47.678;9.158;2023-08-17T07:57:00;27.90;99.90
13433;DHT22;6789;47.678;9.158;2023-08-17T08:07:14;27.60;99.90
13433;DHT22;6789;47.678;9.158;2023-08-17T08:12:06;27.70;99.90
13433;DHT22;6789;47.678;9.158;2023-08-17T08:17:14;27.60;99.90
13433;DHT22;6789;47.678;9.158;2023-08-17T08:22:30;27.80;99.90
13433;DHT22;6789;47.678;9.158;2023-08-17T08:27:36;28.10;99.90
13433;DHT22;6789;47.678;9.158;2023-08-17T08:33:19;28.10;99.90
13433;DHT22;6789;47.678;9.158;2023-08-17T08:44:12;27.90;99.90
13433;DHT22;6789;47.678;9.158;2023-08-17T08:50:05;28.40;99.90
13433;DHT22;6789;47.678;9.158;2023-08-17T08:55:58;28.60;99.90
13433;DHT22;6789;47.678;9.158;2023-08-17T09:06:53;28.90;99.90
13433;DHT22;6789;47.678;9.158;2023-08-17T09:11:46;28.80;99.90
13433;DHT22;6789;47.678;9.158;2023-08-17T09:16:38;28.90;99.90
13433;DHT22;6789;47.678;9.158;2023-08-17T09:21:51;28.80;99.90
13433;DHT22;6789;47.678;9.158;2023-08-17T09:27:13;29.40;99.90
13433;DHT22;6789;47.678;9.158;2023-08-17T09:33:24;29.40;99.90
13433;DHT22;6789;47.678;9.158;2023-08-17T09:38:42;29.70;99.90
13433;DHT22;6789;47.678;9.158;2023-08-17T09:44:19;29.70;99.90
13433;DHT22;6789;47.678;9.158;2023-08-17T09:55:03;29.90;99.90
13433;DHT22;6789;47.678;9.158;2023-08-17T10:00:51;30.20;99.90
13433;DHT22;6789;47.678;9.158;2023-08-17T10:05:47;30.60;99.90
13433;DHT22;6789;47.678;9.158;2023-08-17T10:10:48;30.30;99.90
13433;DHT22;6789;47.678;9.158;2023-08-17T10:16:18;30.10;99.90
13433;DHT22;6789;47.678;9.158;2023-08-17T10:21:59;29.80;99.90
13433;DHT22;6789;47.678;9.158;2023-08-17T10:27:33;29.80;99.90
13433;DHT22;6789;47.678;9.158;2023-08-17T10:32:40;30.10;99.90
13433;DHT22;6789;47.678;9.158;2023-08-17T10:37:47;30.40;99.90
13433;DHT22;6789;47.678;9.158;2023-08-17T10:42:56;30.70;99.90
13433;DHT22;6789;47.678;9.158;2023-08-17T10:58:17;31.20;99.90
13433;DHT22;6789;47.678;9.158;2023-08-17T11:03:25;31.40;99.90
13433;DHT22;6789;47.678;9.158;2023-08-17T11:14:57;31.70;99.90
13433;DHT22;6789;47.678;9.158;2023-08-17T11:20:43;31.60;99.90
13433;DHT22;6789;47.678;9.158;2023-08-17T11:44:41;31.60;99.90
13433;DHT22;6789;47.678;9.158;2023-08-17T11:49:50;31.90;99.90
13433;DHT22;6789;47.678;9.158;2023-08-17T11:54:44;32.00;99.90
13433;DHT22;6789;47.678;9.158;2023-08-17T12:06:50;32.50;99.90
13433;DHT22;6789;47.678;9.158;2023-08-17T12:17:45;31.90;99.90
13433;DHT22;6789;47.678;9.158;2023-08-17T12:22:58;32.20;99.90
13433;DHT22;6789;47.678;9.158;2023-08-17T12:35:32;32.20;99.90
13433;DHT22;6789;47.678;9.158;2023-08-17T12:46:06;32.30;99.90
13433;DHT22;6789;47.678;9.158;2023-08-17T13:24:38;32.10;99.90
13433;DHT22;6789;47.678;9.158;2023-08-17T13:29:30;32.10;99.90
13433;DHT22;6789;47.678;9.158;2023-08-17T13:41:37;31.00;99.90
13433;DHT22;6789;47.678;9.158;2023-08-17T13:47:55;31.00;99.90
13433;DHT22;6789;47.678;9.158;2023-08-17T13:53:38;31.10;99.90
13433;DHT22;6789;47.678;9.158;2023-08-17T13:58:50;31.00;99.90
13433;DHT22;6789;47.678;9.158;2023-08-17T14:04:17;30.40;99.90
13433;DHT22;6789;47.678;9.158;2023-08-17T14:09:33;29.90;99.90
13433;DHT22;6789;47.678;9.158;2023-08-17T14:14:40;29.90;99.90
13433;DHT22;6789;47.678;9.158;2023-08-17T14:19:33;29.50;99.90
13433;DHT22;6789;47.678;9.158;2023-08-17T14:29:50;29.00;99.90
13433;DHT22;6789;47.678;9.158;2023-08-17T14:34:43;28.70;99.90
13433;DHT22;6789;47.678;9.158;2023-08-17T14:39:49;28.50;99.90
13433;DHT22;6789;47.678;9.158;2023-08-17T14:45:13;28.80;99.90
13433;DHT22;6789;47.678;9.158;2023-08-17T14:50:35;29.10;99.90
13433;DHT22;6789;47.678;9.158;2023-08-17T14:55:42;29.20;99.90
13433;DHT22;6789;47.678;9.158;2023-08-17T15:01:00;29.10;99.90
13433;DHT22;6789;47.678;9.158;2023-08-17T15:06:09;29.10;99.90
13433;DHT22;6789;47.678;9.158;2023-08-17T15:11:42;29.40;99.90
13433;DHT22;6789;47.678;9.158;2023-08-17T15:16:34;29.60;99.90
13433;DHT22;6789;47.678;9.158;2023-08-17T15:26:42;30.00;99.90
13433;DHT22;6789;47.678;9.158;2023-08-17T15:31:50;30.10;99.90
13433;DHT22;6789;47.678;9.158;2023-08-17T15:37:06;30.40;99.90
13433;DHT22;6789;47.678;9.158;2023-08-17T15:42:18;30.50;99.90
13433;DHT22;6789;47.678;9.158;2023-08-17T15:47:35;30.50;99.90
13433;DHT22;6789;47.678;9.158;2023-08-17T15:52:44;30.30;99.90
13433;DHT22;6789;47.678;9.158;2023-08-17T15:57:51;30.30;99.90
13433;DHT22;6789;47.678;9.158;2023-08-17T16:02:57;29.90;99.90
13433;DHT22;6789;47.678;9.158;2023-08-17T16:08:14;29.70;99.90
13433;DHT22;6789;47.678;9.158;2023-08-17T16:13:06;29.60;99.90
13433;DHT22;6789;47.678;9.158;2023-08-17T16:18:12;29.40;99.90
13433;DHT22;6789;47.678;9.158;2023-08-17T16:23:21;29.30;99.90
13433;DHT22;6789;47.678;9.158;2023-08-17T16:33:35;29.10;99.90
13433;DHT22;6789;47.678;9.158;2023-08-17T16:38:53;28.90;99.90
13433;DHT22;6789;47.678;9.158;2023-08-17T16:44:15;29.00;99.90
13433;DHT22;6789;47.678;9.158;2023-08-17T16:49:33;29.00;99.90
13433;DHT22;6789;47.678;9.158;2023-08-17T16:54:53;29.00;99.90
13433;DHT22;6789;47.678;9.158;2023-08-17T17:00:00;28.80;99.90
13433;DHT22;6789;47.678;9.158;2023-08-17T17:05:35;28.90;99.90
13433;DHT22;6789;47.678;9.158;2023-08-17T17:10:55;28.80;99.90
13433;DHT22;6789;47.678;9.158;2023-08-17T17:16:02;28.90;99.90
13433;DHT22;6789;47.678;9.158;2023-08-17T17:21:29;28.90;99.90
13433;DHT22;6789;47.678;9.158;2023-08-17T17:26:58;28.80;99.90
13433;DHT22;6789;47.678;9.158;2023-08-17T17:31:58;28.40;99.90
13433;DHT22;6789;47.678;9.158;2023-08-17T17:37:32;28.20;99.90
13433;DHT22;6789;47.678;9.158;2023-08-17T17:42:40;27.90;99.90
13433;DHT22;6789;47.678;9.158;2023-08-17T17:47:56;27.60;99.90
13433;DHT22;6789;47.678;9.158;2023-08-17T17:53:12;27.60;99.90
13433;DHT22;6789;47.678;9.158;2023-08-17T17:58:30;27.30;99.90
13433;DHT22;6789;47.678;9.158;2023-08-17T18:04:00;27.00;99.90
13433;DHT22;6789;47.678;9.158;2023-08-17T18:09:20;26.10;99.90
13433;DHT22;6789;47.678;9.158;2023-08-17T18:14:30;25.10;99.90
13433;DHT22;6789;47.678;9.158;2023-08-17T18:19:40;24.60;99.90
13433;DHT22;6789;47.678;9.158;2023-08-17T18:24:56;24.30;99.90
13433;DHT22;6789;47.678;9.158;2023-08-17T18:30:05;24.10;99.90
13433;DHT22;6789;47.678;9.158;2023-08-17T18:35:47;24.20;99.90
13433;DHT22;6789;47.678;9.158;2023-08-17T18:41:08;24.20;99.90
13433;DHT22;6789;47.678;9.158;2023-08-17T18:46:17;24.00;99.90
13433;DHT22;6789;47.678;9.158;2023-08-17T18:51:36;23.80;99.90
13433;DHT22;6789;47.678;9.158;2023-08-17T18:56:42;23.40;99.90
13433;DHT22;6789;47.678;9.158;2023-08-17T19:01:49;23.20;99.90
13433;DHT22;6789;47.678;9.158;2023-08-17T19:06:48;23.00;99.90
13433;DHT22;6789;47.678;9.158;2023-08-17T19:11:48;22.90;99.90
13433;DHT22;6789;47.678;9.158;2023-08-17T19:16:44;22.80;99.90
13433;DHT22;6789;47.678;9.158;2023-08-17T19:21:53;22.80;99.90
13433;DHT22;6789;47.678;9.158;2023-08-17T19:26:59;22.80;99.90
13433;DHT22;6789;47.678;9.158;2023-08-17T19:31:52;22.80;99.90
13433;DHT22;6789;47.678;9.158;2023-08-17T19:36:57;22.80;99.90
13433;DHT22;6789;47.678;9.158;2023-08-17T19:41:58;22.80;99.90
13433;DHT22;6789;47.678;9.158;2023-08-17T19:47:02;22.80;99.90
13433;DHT22;6789;47.678;9.158;2023-08-17T19:51:59;22.70;99.90
13433;DHT22;6789;47.678;9.158;2023-08-17T19:56:55;22.60;99.90
13433;DHT22;6789;47.678;9.158;2023-08-17T20:02:02;22.60;99.90
13433;DHT22;6789;47.678;9.158;2023-08-17T20:07:09;22.60;99.90
13433;DHT22;6789;47.678;9.158;2023-08-17T20:12:19;22.60;99.90
13433;DHT22;6789;47.678;9.158;2023-08-17T20:17:25;22.50;99.90
13433;DHT22;6789;47.678;9.158;2023-08-17T20:22:30;22.40;99.90
13433;DHT22;6789;47.678;9.158;2023-08-17T20:27:41;22.30;99.90
13433;DHT22;6789;47.678;9.158;2023-08-17T20:32:50;22.30;99.90
13433;DHT22;6789;47.678;9.158;2023-08-17T20:37:55;22.20;99.90
13433;DHT22;6789;47.678;9.158;2023-08-17T20:43:01;22.30;99.90
13433;DHT22;6789;47.678;9.158;2023-08-17T20:48:07;22.20;99.90
13433;DHT22;6789;47.678;9.158;2023-08-17T20:53:08;22.20;99.90
13433;DHT22;6789;47.678;9.158;2023-08-17T20:58:01;22.20;99.90
13433;DHT22;6789;47.678;9.158;2023-08-17T21:03:08;22.10;99.90
13433;DHT22;6789;47.678;9.158;2023-08-17T21:08:09;22.10;99.90
13433;DHT22;6789;47.678;9.158;2023-08-17T21:13:35;22.00;99.90
13433;DHT22;6789;47.678;9.158;2023-08-17T21:18:36;21.90;99.90
13433;DHT22;6789;47.678;9.158;2023-08-17T21:23:32;21.80;99.90
13433;DHT22;6789;47.678;9.158;2023-08-17T21:28:27;21.80;99.90
13433;DHT22;6789;47.678;9.158;2023-08-17T21:33:20;21.80;99.90
13433;DHT22;6789;47.678;9.158;2023-08-17T21:38:26;21.70;99.90
13433;DHT22;6789;47.678;9.158;2023-08-17T21:43:18;21.70;99.90
13433;DHT22;6789;47.678;9.158;2023-08-17T21:48:10;21.70;99.90
13433;DHT22;6789;47.678;9.158;2023-08-17T21:53:02;21.60;99.90
13433;DHT22;6789;47.678;9.158;2023-08-17T21:57:53;21.60;99.90
13433;DHT22;6789;47.678;9.158;2023-08-17T22:18:50;21.80;99.90
13433;DHT22;6789;47.678;9.158;2023-08-17T22:23:42;21.80;99.90
13433;DHT22;6789;47.678;9.158;2023-08-17T22:28:34;21.80;99.90
13433;DHT22;6789;47.678;9.158;2023-08-17T22:33:25;21.80;99.90
13433;DHT22;6789;47.678;9.158;2023-08-17T22:43:24;21.70;99.90
13433;DHT22;6789;47.678;9.158;2023-08-17T22:48:16;21.60;99.90
13433;DHT22;6789;47.678;9.158;2023-08-17T22:53:08;21.50;99.90
13433;DHT22;6789;47.678;9.158;2023-08-17T22:57:59;21.40;99.90
13433;DHT22;6789;47.678;9.158;2023-08-17T23:02:51;21.30;99.90
13433;DHT22;6789;47.678;9.158;2023-08-17T23:07:43;21.20;99.90
13433;DHT22;6789;47.678;9.158;2023-08-17T23:12:35;21.10;99.90
13433;DHT22;6789;47.678;9.158;2023-08-17T23:17:27;21.10;99.90
13433;DHT22;6789;47.678;9.158;2023-08-17T23:22:19;21.10;99.90
13433;DHT22;6789;47.678;9.158;2023-08-17T23:27:11;21.00;99.90
13433;DHT22;6789;47.678;9.158;2023-08-17T23:32:16;20.90;99.90
13433;DHT22;6789;47.678;9.158;2023-08-17T23:37:19;20.80;99.90
13433;DHT22;6789;47.678;9.158;2023-08-17T23:42:10;20.70;99.90
13433;DHT22;6789;47.678;9.158;2023-08-17T23:47:02;20.70;99.90
13433;DHT22;6789;47.678;9.158;2023-08-17T23:51:54;20.70;99.90
13433;DHT22;6789;47.678;9.158;2023-08-17T23:56:47;20.60;99.90
